Time;durP1;ratioP1;P1;durP2;ratioP2;P2;SDS_P1;SDS_P2;PMS_P1;PMS_P2;Temp;Humidity;BMP_temperature;BMP_pressure;BME280_temperature;BME280_humidity;BME280_pressure;Samples;Min_cycle;Max_cycle;Signal;HPM_P1;HPM_P2
2023/08/29 00:00:43;;;;;;;6.47;4.70;;;;;;;12.44;100.00;97897.47;4173008;28;20500;-71
2023/08/29 00:02:44;;;;;;;7.20;5.22;;;;;;;12.44;100.00;97883.59;4171736;28;20057;-72
2023/08/29 00:04:44;;;;;;;6.90;5.80;;;;;;;12.49;100.00;97874.84;4172085;28;20544;-72
2023/08/29 00:06:45;;;;;;;5.88;5.03;;;;;;;12.51;100.00;97884.38;4172715;28;20065;-71
2023/08/29 00:08:45;;;;;;;8.93;6.10;;;;;;;12.52;100.00;97887.94;4172462;28;20072;-72
2023/08/29 00:10:45;;;;;;;7.38;5.35;;;;;;;12.55;100.00;97882.34;4172810;28;20072;-72
2023/08/29 00:12:46;;;;;;;7.43;5.72;;;;;;;12.52;100.00;97868.50;4172197;28;20120;-72
2023/08/29 00:14:46;;;;;;;6.90;5.75;;;;;;;12.47;100.00;97863.38;4172207;28;20106;-71
2023/08/29 00:16:46;;;;;;;6.72;5.80;;;;;;;12.45;100.00;97866.56;4172469;28;20044;-71
2023/08/29 00:18:46;;;;;;;7.47;5.93;;;;;;;12.47;100.00;97874.47;4172184;28;20110;-72
2023/08/29 00:20:51;;;;;;;7.25;5.72;;;;;;;12.45;100.00;97866.56;4172473;28;20065;-72
2023/08/29 00:22:52;;;;;;;7.32;5.57;;;;;;;12.42;100.00;97872.13;4171638;28;20059;-71
2023/08/29 00:24:52;;;;;;;7.88;5.30;;;;;;;12.42;100.00;97872.91;4172338;28;20040;-72
2023/08/29 00:26:52;;;;;;;6.03;5.43;;;;;;;12.45;100.00;97872.09;4172088;28;20163;-71
2023/08/29 00:28:53;;;;;;;7.07;5.40;;;;;;;12.41;100.00;97881.63;4172532;28;20552;-72
2023/08/29 00:30:54;;;;;;;10.65;5.80;;;;;;;12.40;100.00;97868.94;4171890;28;20454;-72
2023/08/29 00:32:54;;;;;;;7.80;5.93;;;;;;;12.40;100.00;97869.75;4171496;28;20115;-72
2023/08/29 00:34:55;;;;;;;8.30;5.95;;;;;;;12.41;100.00;97865.78;4172440;28;20053;-71
2023/08/29 00:36:56;;;;;;;5.95;5.32;;;;;;;12.40;100.00;97864.19;4171973;28;20144;-72
2023/08/29 00:38:56;;;;;;;6.00;5.40;;;;;;;12.38;100.00;97867.38;4172367;28;20127;-72
2023/08/29 00:40:56;;;;;;;6.10;5.50;;;;;;;12.36;100.00;97858.69;4172698;28;20052;-71
2023/08/29 00:42:58;;;;;;;10.27;6.05;;;;;;;12.37;100.00;97843.59;4171185;28;20048;-72
2023/08/29 00:44:58;;;;;;;7.18;5.78;;;;;;;12.33;100.00;97848.41;4173617;28;20056;-71
2023/08/29 00:46:59;;;;;;;9.52;6.20;;;;;;;12.32;100.00;97846.00;4171620;28;20072;-71
2023/08/29 00:48:59;;;;;;;10.43;5.90;;;;;;;12.32;100.00;97849.56;4175505;28;20522;-71
2023/08/29 00:51:00;;;;;;;6.55;5.25;;;;;;;12.32;100.00;97848.78;4175451;28;20053;-72
2023/08/29 00:53:05;;;;;;;11.07;6.45;;;;;;;12.33;100.00;97861.47;4174746;28;20048;-72
2023/08/29 00:55:06;;;;;;;6.53;5.65;;;;;;;12.41;100.00;97867.75;4175214;28;20401;-71
2023/08/29 00:57:07;;;;;;;7.32;5.95;;;;;;;12.36;100.00;97863.44;4207203;28;20091;-72
2023/08/29 00:59:07;;;;;;;6.70;5.50;;;;;;;12.40;100.00;97866.19;4175140;28;20056;-71
2023/08/29 01:01:08;;;;;;;6.07;5.13;;;;;;;12.36;100.00;97866.22;4175143;28;20053;-71
2023/08/29 01:03:08;;;;;;;7.47;5.70;;;;;;;12.36;100.00;97860.66;4174275;28;20512;-72
2023/08/29 01:05:08;;;;;;;6.30;5.28;;;;;;;12.38;100.00;97867.38;4174986;28;20550;-71
2023/08/29 01:07:09;;;;;;;7.13;5.53;;;;;;;12.33;100.00;97878.13;4175395;28;20063;-71
2023/08/29 01:09:10;;;;;;;6.68;5.80;;;;;;;12.31;100.00;97877.72;4175035;28;20071;-71
2023/08/29 01:11:25;;;;;;;6.22;5.47;;;;;;;12.28;100.00;97881.31;4175400;28;20049;-71
2023/08/29 01:13:35;;;;;;;7.43;5.72;;;;;;;12.29;100.00;97892.00;4174547;28;20466;-72
2023/08/29 01:15:36;;;;;;;7.90;5.15;;;;;;;12.33;100.00;97884.47;4174341;28;20090;-71
2023/08/29 01:17:47;;;;;;;7.40;5.68;;;;;;;12.28;100.00;97873.78;4174588;28;20478;-71
2023/08/29 01:19:52;;;;;;;6.32;5.72;;;;;;;12.27;100.00;97866.66;4175253;28;20049;-72
2023/08/29 01:22:04;;;;;;;6.78;5.78;;;;;;;12.26;100.00;97859.53;4174566;28;20064;-71
2023/08/29 01:24:17;;;;;;;5.85;5.25;;;;;;;12.32;100.00;97863.44;4173943;28;20441;-72
2023/08/29 01:26:17;;;;;;;6.13;5.10;;;;;;;12.28;100.00;97857.13;4174895;28;20117;-71
2023/08/29 01:28:21;;;;;;;8.63;5.70;;;;;;;12.25;100.00;97857.16;4175184;28;20125;-72
2023/08/29 01:30:22;;;;;;;8.02;6.35;;;;;;;12.21;100.00;97854.41;4172829;28;20052;-71
2023/08/29 01:32:24;;;;;;;7.10;5.32;;;;;;;12.29;100.00;97869.03;4175010;28;20216;-72
2023/08/29 01:34:26;;;;;;;8.30;5.13;;;;;;;12.30;100.00;97857.50;4173427;28;20106;-72
2023/08/29 01:36:47;;;;;;;9.13;5.65;;;;;;;12.26;100.00;97865.06;4175096;28;20119;-71
2023/08/29 01:38:47;;;;;;;6.88;5.80;;;;;;;12.21;100.00;97859.16;4174332;28;20143;-71
2023/08/29 01:40:48;;;;;;;8.38;5.75;;;;;;;12.22;100.00;97855.97;4174642;28;20138;-72
2023/08/29 01:42:48;;;;;;;6.45;4.88;;;;;;;12.27;100.00;97861.09;4173640;28;21018;-71
2023/08/29 01:44:49;;;;;;;5.60;5.00;;;;;;;12.23;100.00;97862.31;4174233;28;20053;-72
2023/08/29 01:46:49;;;;;;;6.18;5.53;;;;;;;12.28;100.00;97856.34;4175226;28;20130;-71
2023/08/29 01:48:49;;;;;;;6.18;5.45;;;;;;;12.24;100.00;97848.03;4174280;28;20088;-72
2023/08/29 01:50:50;;;;;;;7.13;5.40;;;;;;;12.25;100.00;97838.53;4174290;28;20045;-72
2023/08/29 01:52:50;;;;;;;9.13;5.22;;;;;;;12.24;100.00;97844.47;4174068;28;20076;-72
2023/08/29 01:54:50;;;;;;;8.52;5.65;;;;;;;12.21;100.00;97848.06;4174251;28;20245;-71
2023/08/29 01:56:54;;;;;;;6.03;5.43;;;;;;;12.22;100.00;97857.97;4174239;28;20120;-72
2023/08/29 01:58:56;;;;;;;7.97;5.40;;;;;;;12.18;100.00;97862.75;4172823;28;20049;-72
2023/08/29 02:00:57;;;;;;;10.02;5.97;;;;;;;12.15;100.00;97867.09;4173921;28;20049;-72
2023/08/29 02:02:57;;;;;;;6.82;5.28;;;;;;;12.18;100.00;97879.38;4174379;28;20491;-72
2023/08/29 02:04:58;;;;;;;5.57;4.95;;;;;;;12.18;100.00;97871.84;4174421;28;20408;-72
2023/08/29 02:06:59;;;;;;;6.13;4.55;;;;;;;12.24;100.00;97863.88;4174058;28;20651;-71
2023/08/29 02:08:59;;;;;;;9.00;4.95;;;;;;;12.24;100.00;97861.09;4174733;28;20480;-71
2023/08/29 02:10:59;;;;;;;6.55;5.10;;;;;;;12.25;100.00;97871.03;4174111;28;20092;-72
2023/08/29 02:13:00;;;;;;;7.47;4.93;;;;;;;12.26;100.00;97873.41;4173292;28;20076;-71
2023/08/29 02:15:00;;;;;;;6.78;4.93;;;;;;;12.23;100.00;97862.31;4174559;28;20045;-71
2023/08/29 02:17:00;;;;;;;6.95;4.97;;;;;;;12.25;100.00;97877.38;4174077;28;20041;-71
2023/08/29 02:19:02;;;;;;;5.18;4.60;;;;;;;12.26;100.00;97873.41;4174550;28;20072;-72
2023/08/29 02:21:03;;;;;;;5.25;4.75;;;;;;;12.30;100.00;97876.16;4174003;28;20484;-71
2023/08/29 02:23:04;;;;;;;8.52;4.70;;;;;;;12.30;100.00;97867.81;4173892;28;20464;-72
2023/08/29 02:25:04;;;;;;;5.13;4.47;;;;;;;12.30;100.00;97863.06;4174480;28;20052;-71
2023/08/29 02:27:05;;;;;;;5.25;4.60;;;;;;;12.28;100.00;97871.00;4173413;28;20056;-72
2023/08/29 02:29:05;;;;;;;5.70;4.55;;;;;;;12.29;100.00;97878.13;4174462;28;20041;-71
2023/08/29 02:31:09;;;;;;;5.82;5.05;;;;;;;12.27;100.00;97872.19;4173504;28;20128;-72
2023/08/29 02:33:09;;;;;;;5.32;4.13;;;;;;;12.31;100.00;97874.94;4173099;28;20083;-71
2023/08/29 02:35:10;;;;;;;4.50;4.10;;;;;;;12.33;100.00;97876.13;4173828;28;20040;-71
2023/08/29 02:37:10;;;;;;;4.63;4.00;;;;;;;12.33;100.00;97865.03;4174237;28;20055;-71
2023/08/29 02:39:10;;;;;;;6.28;4.65;;;;;;;12.33;100.00;97864.25;4173817;28;20052;-72
2023/08/29 02:41:11;;;;;;;5.32;4.22;;;;;;;12.34;100.00;97861.06;4173776;28;20356;-72
2023/08/29 02:43:11;;;;;;;6.00;4.30;;;;;;;12.32;100.00;97852.34;4172834;28;20053;-71
2023/08/29 02:45:12;;;;;;;4.78;3.85;;;;;;;12.33;100.00;97851.19;4174487;28;20143;-71
2023/08/29 02:47:12;;;;;;;8.27;5.00;;;;;;;12.39;100.00;97837.66;4173517;28;20498;-71
2023/08/29 02:49:12;;;;;;;7.65;4.25;;;;;;;12.37;100.00;97832.50;4173752;28;20458;-71
2023/08/29 02:51:13;;;;;;;5.70;4.20;;;;;;;12.39;100.00;97823.78;4173729;28;20358;-71
2023/08/29 02:53:15;;;;;;;8.23;4.45;;;;;;;12.39;100.00;97829.31;4173121;28;20086;-72
2023/08/29 02:55:16;;;;;;;4.60;4.20;;;;;;;12.42;100.00;97823.00;4173673;28;20041;-71
2023/08/29 02:57:16;;;;;;;4.28;3.47;;;;;;;12.40;100.00;97808.72;4173404;28;20622;-72
2023/08/29 02:59:16;;;;;;;4.57;3.95;;;;;;;12.41;100.00;97809.50;4173493;28;20052;-71
2023/08/29 03:01:17;;;;;;;8.27;3.97;;;;;;;12.45;100.00;97804.72;4172931;28;20044;-72
2023/08/29 03:03:17;;;;;;;8.90;4.22;;;;;;;12.41;100.00;97806.72;4173201;28;20147;-71
2023/08/29 03:05:17;;;;;;;8.43;3.90;;;;;;;12.38;100.00;97789.69;4173517;28;20401;-72
2023/08/29 03:07:18;;;;;;;6.75;3.67;;;;;;;12.37;100.00;97798.44;4172937;28;20057;-71
2023/08/29 03:09:18;;;;;;;5.75;3.97;;;;;;;12.35;100.00;97789.75;4173460;28;20084;-71
2023/08/29 03:11:18;;;;;;;4.18;3.55;;;;;;;12.37;100.00;97792.88;4172502;28;20118;-71
2023/08/29 03:13:19;;;;;;;4.43;3.47;;;;;;;12.36;100.00;97786.56;4172902;28;20051;-71
2023/08/29 03:15:19;;;;;;;5.05;3.72;;;;;;;12.36;100.00;97796.88;4173069;28;20204;-72
2023/08/29 03:17:21;;;;;;;6.28;3.97;;;;;;;12.37;100.00;97802.00;4173564;28;20036;-71
2023/08/29 03:19:21;;;;;;;4.97;3.90;;;;;;;12.36;100.00;97802.41;4172972;28;20518;-71
2023/08/29 03:21:22;;;;;;;6.38;4.10;;;;;;;12.38;100.00;97794.47;4171993;28;20331;-72
2023/08/29 03:23:22;;;;;;;4.20;3.80;;;;;;;12.33;100.00;97801.25;4172976;28;20068;-71
2023/08/29 03:25:22;;;;;;;6.75;4.22;;;;;;;12.30;100.00;97793.72;4173026;28;20067;-72
2023/08/29 03:27:23;;;;;;;5.07;3.90;;;;;;;12.30;100.00;97798.47;4173174;28;20040;-71
2023/08/29 03:29:23;;;;;;;8.48;4.40;;;;;;;12.29;100.00;97785.81;4172968;28;20052;-71
2023/08/29 03:31:23;;;;;;;4.53;4.10;;;;;;;12.34;100.00;97793.72;4172772;28;20424;-72
2023/08/29 03:33:24;;;;;;;4.97;3.83;;;;;;;12.32;100.00;97793.31;4172107;28;20041;-71
2023/08/29 03:35:24;;;;;;;5.90;3.60;;;;;;;12.34;100.00;97793.72;4172720;28;20080;-71
2023/08/29 03:37:24;;;;;;;4.25;3.33;;;;;;;12.34;100.00;97794.50;4173250;28;20540;-71
2023/08/29 03:39:25;;;;;;;4.20;3.78;;;;;;;12.32;100.00;97793.31;4172720;28;20048;-71
2023/08/29 03:41:25;;;;;;;4.60;3.83;;;;;;;12.29;100.00;97794.91;4172713;28;20049;-71
2023/08/29 03:43:29;;;;;;;6.38;4.13;;;;;;;12.30;100.00;97795.69;4171969;28;20049;-71
2023/08/29 03:45:29;;;;;;;4.05;3.38;;;;;;;12.29;100.00;97792.16;4172998;28;20048;-71
2023/08/29 03:47:31;;;;;;;5.72;3.47;;;;;;;12.28;100.00;97790.56;4172117;28;20416;-72
2023/08/29 03:49:32;;;;;;;;;;;;;;;12.32;100.00;97788.53;4173199;28;20052;-71
2023/08/29 03:51:32;;;;;;;4.88;3.60;;;;;;;12.29;100.00;97783.81;4172945;28;19916;-71
2023/08/29 03:53:33;;;;;;;4.78;3.40;;;;;;;12.28;100.00;97787.78;4172044;28;20493;-71
2023/08/29 03:55:34;;;;;;;3.88;3.47;;;;;;;12.28;100.00;97787.00;4172005;28;20045;-71
2023/08/29 03:57:34;;;;;;;4.45;3.70;;;;;;;12.25;100.00;97779.50;4172646;28;20056;-72
2023/08/29 03:59:34;;;;;;;4.90;3.63;;;;;;;12.28;100.00;97784.22;4172925;28;20056;-71
2023/08/29 04:01:35;;;;;;;4.72;3.85;;;;;;;12.27;100.00;97785.44;4172406;28;20084;-71
2023/08/29 04:03:35;;;;;;;4.55;3.65;;;;;;;12.26;100.00;97792.97;4171959;28;20505;-71
2023/08/29 04:05:36;;;;;;;4.60;3.45;;;;;;;12.25;100.00;97785.84;4172719;28;20135;-71
2023/08/29 04:07:37;;;;;;;5.75;4.57;;;;;;;12.24;100.00;97794.53;4172455;28;20075;-72
2023/08/29 04:09:38;;;;;;;6.28;3.50;;;;;;;12.23;100.00;97787.41;4171760;28;20037;-72
2023/08/29 04:11:38;;;;;;;4.15;3.55;;;;;;;12.23;100.00;97796.53;4172293;28;20055;-71
2023/08/29 04:13:38;;;;;;;5.95;3.47;;;;;;;12.30;100.00;97790.16;4171939;28;20492;-71
2023/08/29 04:15:39;;;;;;;5.05;3.58;;;;;;;12.28;100.00;97798.09;4172292;28;20725;-72
2023/08/29 04:17:39;;;;;;;4.28;3.30;;;;;;;12.24;100.00;97797.31;4172363;28;20037;-71
2023/08/29 04:19:40;;;;;;;3.67;3.20;;;;;;;12.25;100.00;97799.72;4172482;28;20447;-71
2023/08/29 04:21:40;;;;;;;4.05;3.13;;;;;;;12.33;100.00;97803.22;4171577;28;20142;-72
2023/08/29 04:23:41;;;;;;;7.10;3.42;;;;;;;12.32;100.00;97802.41;4171190;28;20041;-71
2023/08/29 04:25:41;;;;;;;3.92;2.85;;;;;;;12.28;100.00;97790.56;4172263;28;20128;-71
2023/08/29 04:27:41;;;;;;;5.90;3.53;;;;;;;12.31;100.00;97803.63;4171994;28;20049;-71
2023/08/29 04:29:43;;;;;;;9.63;2.97;;;;;;;12.35;100.00;97792.50;4171009;28;20057;-72
2023/08/29 04:31:43;;;;;;;3.45;3.08;;;;;;;12.34;100.00;97791.72;4172435;28;20332;-71
2023/08/29 04:33:44;;;;;;;3.50;3.00;;;;;;;12.36;100.00;97792.09;4171755;28;20076;-71
2023/08/29 04:35:44;;;;;;;4.40;3.50;;;;;;;12.38;100.00;97800.00;4171974;28;20041;-72
2023/08/29 04:37:48;;;;;;;3.65;3.15;;;;;;;12.41;100.00;97796.41;4171725;28;20139;-72
2023/08/29 04:39:49;;;;;;;4.20;3.13;;;;;;;12.41;100.00;97790.88;4172277;28;20144;-72
2023/08/29 04:41:50;;;;;;;3.50;2.80;;;;;;;12.41;100.00;97788.09;4170804;28;20076;-72
2023/08/29 04:43:50;;;;;;;3.72;2.45;;;;;;;12.51;100.00;97790.03;4171436;28;20045;-71
2023/08/29 04:45:51;;;;;;;4.88;2.83;;;;;;;12.49;100.00;97786.06;4172315;28;20377;-71
2023/08/29 04:47:52;;;;;;;5.32;3.15;;;;;;;12.47;100.00;97785.69;4172080;28;20037;-71
2023/08/29 04:49:52;;;;;;;5.25;2.90;;;;;;;12.48;100.00;97788.03;4172221;28;20246;-71
2023/08/29 04:51:52;;;;;;;4.93;2.90;;;;;;;12.48;100.00;97790.81;4172260;28;20132;-71
2023/08/29 04:53:53;;;;;;;4.88;3.05;;;;;;;12.50;100.00;97782.91;4171474;28;20610;-71
2023/08/29 04:56:01;;;;;;;4.68;3.08;;;;;;;12.48;100.00;97787.25;4171993;28;20570;-71
2023/08/29 04:58:02;;;;;;;4.50;2.97;;;;;;;12.44;100.00;97789.28;4171838;28;20128;-71
2023/08/29 05:00:04;;;;;;;3.40;2.90;;;;;;;12.48;100.00;97787.25;4171918;28;20347;-72
2023/08/29 05:02:05;;;;;;;4.38;2.80;;;;;;;12.48;100.00;97785.28;4112968;28;20084;-72
2023/08/29 05:04:05;;;;;;;3.88;3.28;;;;;;;12.54;100.00;97794.75;4179794;28;20060;-72
2023/08/29 05:06:06;;;;;;;4.63;3.28;;;;;;;12.55;100.00;97801.09;4171936;28;20547;-72
2023/08/29 05:08:06;;;;;;;4.72;3.38;;;;;;;12.57;100.00;97802.25;4171350;28;20032;-72
2023/08/29 05:10:07;;;;;;;3.50;3.20;;;;;;;12.60;100.00;97789.56;4172546;28;20585;-72
2023/08/29 05:12:10;;;;;;;5.93;3.50;;;;;;;12.59;100.00;97796.31;4172182;28;20096;-72
2023/08/29 05:14:10;;;;;;;5.72;3.40;;;;;;;12.57;100.00;97805.03;4171109;28;20608;-72
2023/08/29 05:16:10;;;;;;;5.30;3.60;;;;;;;12.59;100.00;97799.09;4171923;28;20067;-72
2023/08/29 05:18:11;;;;;;;6.95;3.97;;;;;;;12.59;100.00;97812.97;4171954;28;20498;-72
2023/08/29 05:20:11;;;;;;;4.80;3.15;;;;;;;12.59;100.00;97804.63;4171369;28;20495;-72
2023/08/29 05:22:12;;;;;;;5.30;3.03;;;;;;;12.57;100.00;97799.47;4171488;28;20025;-72
2023/08/29 05:24:12;;;;;;;6.10;3.72;;;;;;;12.57;100.00;97787.59;4171679;28;20431;-72
2023/08/29 05:26:12;;;;;;;4.03;3.22;;;;;;;12.58;100.00;97791.97;4172307;28;20025;-72
2023/08/29 05:28:13;;;;;;;4.65;3.40;;;;;;;12.58;100.00;97795.53;4171802;28;20028;-71
2023/08/29 05:30:13;;;;;;;4.25;2.80;;;;;;;12.63;100.00;97800.63;4171722;28;20119;-71
2023/08/29 05:32:14;;;;;;;3.85;2.95;;;;;;;12.62;100.00;97793.50;4171695;28;20137;-71
2023/08/29 05:34:14;;;;;;;3.22;2.92;;;;;;;12.66;100.00;97793.50;4171523;28;20037;-71
2023/08/29 05:36:14;;;;;;;3.35;3.05;;;;;;;12.62;100.00;97789.94;4173438;28;20032;-71
2023/08/29 05:38:14;;;;;;;7.03;3.30;;;;;;;12.58;100.00;97783.63;4173889;28;20060;-71
2023/08/29 05:40:15;;;;;;;6.18;3.10;;;;;;;12.55;100.00;97781.66;4174173;28;20084;-71
2023/08/29 05:42:15;;;;;;;7.75;3.45;;;;;;;12.56;100.00;97786.78;4174165;28;20595;-71
2023/08/29 05:44:16;;;;;;;7.45;3.58;;;;;;;12.51;100.00;97783.69;4173864;28;20094;-71
2023/08/29 05:46:16;;;;;;;6.10;3.40;;;;;;;12.51;100.00;97780.91;4174608;28;20029;-71
2023/08/29 05:48:16;;;;;;;4.00;3.60;;;;;;;12.52;100.00;97779.72;4173958;28;20025;-71
2023/08/29 05:50:17;;;;;;;5.30;3.65;;;;;;;12.52;100.00;97785.25;4174004;28;20025;-71
2023/08/29 05:52:17;;;;;;;5.75;3.53;;;;;;;12.51;100.00;97784.47;4174445;28;20032;-71
2023/08/29 05:54:17;;;;;;;6.97;4.00;;;;;;;12.50;100.00;97788.44;4173910;28;20114;-71
2023/08/29 05:56:18;;;;;;;4.20;3.80;;;;;;;12.52;100.00;97786.03;4174727;28;20028;-71
2023/08/29 05:58:21;;;;;;;8.43;3.83;;;;;;;12.51;100.00;97792.00;4175074;28;20435;-71
2023/08/29 06:00:21;;;;;;;6.45;3.80;;;;;;;12.49;100.00;97784.06;4174301;28;20052;-71
2023/08/29 06:02:22;;;;;;;8.38;3.95;;;;;;;12.51;100.00;97792.00;4174506;28;20037;-71
2023/08/29 06:04:22;;;;;;;4.13;3.35;;;;;;;12.54;100.00;97791.19;4173963;28;20474;-71
2023/08/29 06:06:23;;;;;;;4.75;3.78;;;;;;;12.53;100.00;97792.38;4173945;28;20405;-71
2023/08/29 06:08:23;;;;;;;8.48;3.83;;;;;;;12.59;100.00;97804.63;4174639;28;20080;-71
2023/08/29 06:10:23;;;;;;;5.18;3.75;;;;;;;12.58;100.00;97794.75;4174126;28;20064;-71
2023/08/29 06:12:24;;;;;;;7.18;3.72;;;;;;;12.62;100.00;97798.25;4174638;28;20075;-71
2023/08/29 06:14:24;;;;;;;6.88;3.50;;;;;;;12.64;100.00;97793.09;4173943;28;20041;-71
2023/08/29 06:16:24;;;;;;;4.00;3.20;;;;;;;12.64;100.00;97791.09;4174305;28;20049;-71
2023/08/29 06:18:25;;;;;;;6.68;3.80;;;;;;;12.65;100.00;97797.44;4174843;28;20035;-71
2023/08/29 06:20:25;;;;;;;4.53;3.38;;;;;;;12.65;100.00;97800.22;4173627;28;20123;-71
2023/08/29 06:22:25;;;;;;;5.03;3.53;;;;;;;12.67;100.00;97794.28;4173976;28;20521;-71
2023/08/29 06:24:26;;;;;;;5.00;4.10;;;;;;;12.64;100.00;97801.41;4174105;28;20053;-72
2023/08/29 06:26:26;;;;;;;5.05;3.40;;;;;;;12.67;100.00;97799.81;4174057;28;20092;-72
2023/08/29 06:28:27;;;;;;;4.97;3.58;;;;;;;12.60;100.00;97797.88;4174131;28;20033;-72
2023/08/29 06:30:28;;;;;;;3.80;3.40;;;;;;;12.58;100.00;97803.84;4173556;28;20052;-72
2023/08/29 06:32:28;;;;;;;5.22;3.63;;;;;;;12.57;100.00;97812.56;4173999;28;20045;-72
2023/08/29 06:34:29;;;;;;;6.88;3.60;;;;;;;12.54;100.00;97808.63;4173566;28;20041;-72
2023/08/29 06:36:30;;;;;;;6.93;3.90;;;;;;;12.53;100.00;97815.38;4174093;28;20394;-72
2023/08/29 06:38:31;;;;;;;4.88;4.00;;;;;;;12.55;100.00;97818.53;4174388;28;20047;-72
2023/08/29 06:40:31;;;;;;;6.38;3.60;;;;;;;12.57;100.00;97816.13;4173917;28;20143;-72
2023/08/29 06:42:32;;;;;;;6.20;3.90;;;;;;;12.54;100.00;97821.72;4173207;28;20143;-72
2023/08/29 06:44:32;;;;;;;5.25;4.18;;;;;;;12.52;100.00;97822.13;4173552;28;20567;-72
2023/08/29 06:46:33;;;;;;;5.55;4.50;;;;;;;12.46;100.00;97817.41;4173243;28;20477;-71
2023/08/29 06:48:33;;;;;;;5.30;3.97;;;;;;;12.49;100.00;97820.13;4173382;28;20060;-71
2023/08/29 06:50:34;;;;;;;7.35;4.82;;;;;;;12.46;100.00;97823.75;4173865;28;20041;-71
2023/08/29 06:52:35;;;;;;;7.63;4.35;;;;;;;12.44;100.00;97833.66;4173450;28;20036;-71
2023/08/29 06:54:35;;;;;;;9.05;5.20;;;;;;;12.34;100.00;97836.09;4173600;28;20261;-71
2023/08/29 06:56:36;;;;;;;8.65;5.25;;;;;;;12.36;100.00;97838.47;4173820;28;20072;-71
2023/08/29 06:58:37;;;;;;;6.03;4.65;;;;;;;12.36;100.00;97839.25;4173932;28;20084;-71
2023/08/29 07:00:37;;;;;;;6.03;4.78;;;;;;;12.38;100.00;97842.41;4173901;28;20071;-71
2023/08/29 07:02:38;;;;;;;7.05;5.00;;;;;;;12.37;100.00;97837.28;4173013;28;20137;-71
2023/08/29 07:04:38;;;;;;;7.68;5.10;;;;;;;12.40;100.00;97839.22;4172828;28;20669;-71
2023/08/29 07:06:39;;;;;;;6.95;5.18;;;;;;;12.41;100.00;97849.13;4173993;28;20191;-71
2023/08/29 07:08:40;;;;;;;6.65;5.18;;;;;;;12.46;100.00;97850.69;4173354;28;20073;-71
2023/08/29 07:10:41;;;;;;;9.00;5.82;;;;;;;12.44;100.00;97845.56;4172048;28;20040;-71
2023/08/29 07:12:42;;;;;;;6.07;4.90;;;;;;;12.46;100.00;97848.72;4173314;28;20219;-71
2023/08/29 07:14:42;;;;;;;9.15;5.03;;;;;;;12.53;100.00;97857.00;4173323;28;20052;-71
2023/08/29 07:16:42;;;;;;;8.52;5.60;;;;;;;12.54;100.00;97855.00;4173312;28;20064;-71
2023/08/29 07:18:43;;;;;;;9.93;8.00;;;;;;;12.57;100.00;97860.53;4173163;28;20132;-71
2023/08/29 07:20:48;;;;;;;11.27;8.30;;;;;;;12.61;100.00;97866.06;4173030;28;20044;-71
2023/08/29 07:22:49;;;;;;;11.68;8.73;;;;;;;12.60;100.00;97870.03;4171693;28;20408;-71
2023/08/29 07:24:49;;;;;;;10.30;7.03;;;;;;;12.60;100.00;97867.25;4173159;28;20109;-71
2023/08/29 07:26:50;;;;;;;8.80;5.95;;;;;;;12.62;100.00;97867.63;4173029;28;20049;-71
2023/08/29 07:28:50;;;;;;;7.15;6.38;;;;;;;12.67;100.00;97872.78;4173626;28;20033;-71
2023/08/29 07:30:51;;;;;;;7.93;6.47;;;;;;;12.68;100.00;97870.78;4173042;28;20141;-71
2023/08/29 07:32:51;;;;;;;6.43;5.43;;;;;;;12.72;100.00;97874.31;4171895;28;20040;-71
2023/08/29 07:34:52;;;;;;;5.90;5.10;;;;;;;12.77;100.00;97885.00;4173601;28;20500;-71
2023/08/29 07:36:52;;;;;;;8.82;5.47;;;;;;;12.79;100.00;97885.38;4172880;28;20076;-71
2023/08/29 07:38:52;;;;;;;8.80;5.43;;;;;;;12.78;100.00;97881.81;4173059;28;20489;-71
2023/08/29 07:40:53;;;;;;;6.78;5.03;;;;;;;12.79;100.00;97880.59;4173012;28;20473;-71
2023/08/29 07:42:53;;;;;;;9.90;7.50;;;;;;;12.81;100.00;97882.97;4172328;28;20150;-71
2023/08/29 07:44:53;;;;;;;6.72;5.22;;;;;;;12.80;100.00;97879.41;4173088;28;20126;-71
2023/08/29 07:46:54;;;;;;;5.70;5.03;;;;;;;12.88;100.00;97888.47;4172649;28;20496;-71
2023/08/29 07:48:54;;;;;;;7.90;5.00;;;;;;;12.88;100.00;97889.25;4173274;28;20048;-71
2023/08/29 07:50:54;;;;;;;6.35;4.95;;;;;;;12.84;100.00;97899.63;4172890;28;20072;-71
2023/08/29 07:52:54;;;;;;;7.10;5.47;;;;;;;12.91;100.00;97893.22;4172032;28;20478;-71
2023/08/29 07:54:58;;;;;;;5.85;5.25;;;;;;;12.89;100.00;97901.16;4173006;28;20454;-71
2023/08/29 07:56:58;;;;;;;6.85;4.97;;;;;;;12.89;100.00;97896.41;4172855;28;20056;-71
2023/08/29 07:58:58;;;;;;;5.45;4.95;;;;;;;12.96;100.00;97903.88;4172445;28;20049;-71
2023/08/29 08:00:59;;;;;;;7.40;4.93;;;;;;;12.94;100.00;97904.31;4172790;28;20128;-71
2023/08/29 08:03:00;;;;;;;6.82;5.57;;;;;;;12.94;100.00;97909.84;4171919;28;20049;-71
2023/08/29 08:05:01;;;;;;;5.50;4.60;;;;;;;13.03;100.00;97903.84;4172517;28;20945;-71
2023/08/29 08:07:02;;;;;;;7.90;4.60;;;;;;;13.06;100.00;97905.78;4172428;28;20144;-71
2023/08/29 08:09:04;;;;;;;5.70;4.13;;;;;;;13.09;100.00;97904.19;4172743;28;20472;-71
2023/08/29 08:11:05;;;;;;;6.50;4.50;;;;;;;13.13;100.00;97913.28;4172679;28;20082;-71
2023/08/29 08:13:05;;;;;;;6.25;4.13;;;;;;;13.17;100.00;97914.84;4171827;28;20048;-71
2023/08/29 08:15:09;;;;;;;5.80;4.57;;;;;;;13.25;100.00;97918.38;4172468;28;20033;-71
2023/08/29 08:17:09;;;;;;;6.25;3.90;;;;;;;13.19;100.00;97914.44;4172211;28;20432;-71
2023/08/29 08:19:10;;;;;;;4.85;3.65;;;;;;;13.21;100.00;97912.84;4172751;28;20049;-71
2023/08/29 08:21:10;;;;;;;6.80;4.07;;;;;;;13.14;100.00;97907.31;4172578;28;20044;-71
2023/08/29 08:23:12;;;;;;;5.47;4.07;;;;;;;13.20;100.00;97908.50;4172063;28;20044;-71
2023/08/29 08:25:12;;;;;;;4.47;3.97;;;;;;;13.13;100.00;97902.97;4204398;28;20514;-71
2023/08/29 08:27:12;;;;;;;4.85;3.95;;;;;;;13.23;100.00;97906.09;4172315;28;20078;-71
2023/08/29 08:29:13;;;;;;;5.45;3.92;;;;;;;13.30;100.00;97906.03;4172632;28;20124;-71
2023/08/29 08:31:13;;;;;;;6.38;3.90;;;;;;;13.36;100.00;97912.75;4172345;28;20045;-71
2023/08/29 08:33:13;;;;;;;9.85;3.60;;;;;;;13.43;100.00;97910.69;4171912;28;20045;-71
2023/08/29 08:35:14;;;;;;;5.82;3.67;;;;;;;13.44;100.00;97908.69;4172403;28;20120;-71
2023/08/29 08:37:14;;;;;;;5.43;4.00;;;;;;;13.48;100.00;97907.44;4172417;28;20052;-71
2023/08/29 08:39:15;;;;;;;5.95;3.20;;;;;;;13.51;100.00;97896.72;4172648;28;20080;-71
2023/08/29 08:41:17;;;;;;;4.88;3.25;;;;;;;13.57;100.00;97907.00;4172262;28;20875;-71
2023/08/29 08:43:18;;;;;;;9.52;4.00;;;;;;;13.60;100.00;97905.38;4171452;28;20473;-71
2023/08/29 08:45:20;;;;;;;4.07;3.08;;;;;;;13.71;100.00;97901.28;4173285;28;20037;-71
2023/08/29 08:47:21;;;;;;;6.97;3.72;;;;;;;13.82;100.00;97894.81;4171728;28;20464;-71
2023/08/29 08:49:22;;;;;;;6.90;3.25;;;;;;;13.88;100.00;97893.94;4172228;28;20041;-71
2023/08/29 08:51:24;;;;;;;7.72;4.15;;;;;;;13.93;100.00;97899.06;4172316;28;20045;-71
2023/08/29 08:53:25;;;;;;;;;;;;;;;14.03;100.00;97895.38;4172273;28;20060;-71
2023/08/29 08:55:26;;;;;;;2.92;2.60;;;;;;;14.01;100.00;97902.56;4171921;28;19916;-71
2023/08/29 08:57:27;;;;;;;10.82;6.68;;;;;;;14.01;100.00;97899.78;4171931;28;20606;-71
2023/08/29 08:59:27;;;;;;;5.45;3.13;;;;;;;14.08;100.00;97904.47;4172082;28;20536;-71
2023/08/29 09:01:29;;;;;;;6.05;3.33;;;;;;;14.11;100.00;97898.84;4171325;28;20463;-71
2023/08/29 09:03:29;;;;;;;4.75;3.03;;;;;;;14.13;100.00;97890.88;4171440;28;20045;-71
2023/08/29 09:05:30;;;;;;;4.20;2.72;;;;;;;14.19;100.00;97899.56;4171813;28;20115;-71
2023/08/29 09:07:30;;;;;;;3.28;2.50;;;;;;;14.17;100.00;97900.00;4172514;28;20504;-71
2023/08/29 09:09:30;;;;;;;3.28;2.40;;;;;;;14.25;100.00;97895.91;4174046;28;20504;-72
2023/08/29 09:11:31;;;;;;;3.72;2.60;;;;;;;14.29;100.00;97898.63;4175204;28;20460;-71
2023/08/29 09:13:31;;;;;;;5.50;2.72;;;;;;;14.31;100.00;97894.25;4175087;28;20047;-71
2023/08/29 09:15:34;;;;;;;5.13;3.13;;;;;;;14.37;100.00;97894.56;4174650;28;20037;-71
2023/08/29 09:17:34;;;;;;;5.38;3.70;;;;;;;14.43;100.00;97892.09;4175435;28;20485;-71
2023/08/29 09:19:36;;;;;;;6.93;4.45;;;;;;;14.38;100.00;97893.34;4174984;28;20045;-71
2023/08/29 09:21:42;;;;;;;4.93;3.78;;;;;;;14.36;100.00;97892.97;4175559;28;20143;-71